Time;durP1;ratioP1;P1;durP2;ratioP2;P2;SDS_P1;SDS_P2;PMS_P1;PMS_P2;Temp;Humidity;BMP_temperature;BMP_pressure;BME280_temperature;BME280_humidity;BME280_pressure;Samples;Min_cycle;Max_cycle;Signal;HPM_P1;HPM_P2
2022/06/24 00:00:14;;;;;;;;;;;;;;;22.26;84.24;96886.05;577831;245;62935;-71
2022/06/24 00:02:43;;;;;;;;;;;;;;;22.25;84.24;96884.44;577844;245;66755;-71
2022/06/24 00:05:11;;;;;;;;;;;;;;;22.24;84.23;96882.84;577975;242;66596;-72
2022/06/24 00:07:48;;;;;;;;;;;;;;;22.24;84.26;96877.50;577850;245;65127;-71
2022/06/24 00:10:17;;;;;;;;;;;;;;;22.24;84.25;96882.06;577852;245;68844;-72
2022/06/24 00:12:45;;;;;;;;;;;;;;;22.25;84.25;96872.94;577828;245;66342;-72
2022/06/24 00:15:13;;;;;;;;;;;;;;;22.24;84.22;96869.47;577852;245;64924;-72
2022/06/24 00:17:40;;;;;;;;;;;;;;;22.24;84.19;96876.70;577890;245;68415;-72
2022/06/24 00:20:09;;;;;;;;;;;;;;;22.24;84.17;96877.50;577856;245;68564;-72
2022/06/24 00:22:44;;;;;;;;;;;;;;;22.24;84.13;96879.38;577840;245;65033;-72
2022/06/24 00:25:13;;;;;;;;;;;;;;;22.25;84.16;96883.64;577836;245;69083;-71
2022/06/24 00:27:41;;;;;;;;;;;;;;;22.25;84.17;96875.61;577839;245;66555;-71
2022/06/24 00:30:11;;;;;;;;;;;;;;;22.25;84.17;96883.64;577855;245;62756;-71
2022/06/24 00:32:39;;;;;;;;;;;;;;;22.24;84.18;96882.84;577893;245;68611;-71
2022/06/24 00:35:09;;;;;;;;;;;;;;;22.23;84.20;96873.20;577846;245;66754;-71
2022/06/24 00:37:37;;;;;;;;;;;;;;;22.23;84.17;96875.88;577833;245;65067;-71
2022/06/24 00:40:12;;;;;;;;;;;;;;;22.24;84.17;96876.70;577874;245;66569;-71
2022/06/24 00:42:44;;;;;;;;;;;;;;;22.24;84.19;96882.84;577854;245;68556;-71
2022/06/24 00:45:19;;;;;;;;;;;;;;;22.24;84.19;96887.41;577896;245;65304;-71
2022/06/24 00:47:48;;;;;;;;;;;;;;;22.23;84.19;96886.59;577916;245;68570;-71
2022/06/24 00:50:29;;;;;;;;;;;;;;;22.23;84.23;96883.12;577862;245;66777;-71
2022/06/24 00:52:57;;;;;;;;;;;;;;;22.22;84.23;96884.21;577849;245;65050;-71
2022/06/24 00:55:27;;;;;;;;;;;;;;;22.22;84.24;96884.21;577884;245;68741;-71
2022/06/24 00:57:55;;;;;;;;;;;;;;;22.22;84.26;96881.53;577888;245;68713;-71
2022/06/24 01:00:26;;;;;;;;;;;;;;;22.22;84.26;96873.50;577937;245;65067;-71
2022/06/24 01:02:58;;;;;;;;;;;;;;;22.22;84.26;96879.65;577926;245;66667;-71
2022/06/24 01:05:26;;;;;;;;;;;;;;;22.22;84.25;96882.33;577926;245;68231;-70
2022/06/24 01:07:54;;;;;;;;;;;;;;;22.22;84.27;96881.53;577908;241;62855;-71
2022/06/24 01:10:22;;;;;;;;;;;;;;;22.22;84.26;96890.36;577882;245;67396;-70
2022/06/24 01:12:49;;;;;;;;;;;;;;;22.22;84.22;96897.59;577882;245;68648;-71
2022/06/24 01:15:17;;;;;;;;;;;;;;;22.21;84.25;96888.77;577925;245;65095;-70
2022/06/24 01:17:44;;;;;;;;;;;;;;;22.22;84.26;96895.71;577877;245;68595;-70
2022/06/24 01:20:13;;;;;;;;;;;;;;;22.21;84.23;96894.13;577898;245;66390;-71
2022/06/24 01:22:41;;;;;;;;;;;;;;;22.21;84.24;96896.80;577900;245;63059;-71
2022/06/24 01:25:09;;;;;;;;;;;;;;;22.21;84.25;96894.13;577879;245;68687;-70
2022/06/24 01:27:36;;;;;;;;;;;;;;;22.21;84.25;96891.45;577889;245;68701;-70
2022/06/24 01:30:04;;;;;;;;;;;;;;;22.21;84.26;96896.80;577911;245;65029;-70
2022/06/24 01:32:33;;;;;;;;;;;;;;;22.21;84.26;96899.48;577892;245;68541;-70
2022/06/24 01:35:01;;;;;;;;;;;;;;;22.21;84.26;96894.13;577866;245;68765;-68
2022/06/24 01:37:29;;;;;;;;;;;;;;;22.21;84.27;96891.45;577847;245;65056;-68
2022/06/24 01:39:57;;;;;;;;;;;;;;;22.21;84.26;96893.30;577924;245;66748;-68
2022/06/24 01:42:24;;;;;;;;;;;;;;;22.21;84.28;96887.95;577870;245;68687;-68
2022/06/24 01:44:51;;;;;;;;;;;;;;;22.21;84.28;96890.63;577892;245;65120;-68
2022/06/24 01:47:19;;;;;;;;;;;;;;;22.21;84.28;96896.80;577879;245;66683;-71
2022/06/24 01:49:46;;;;;;;;;;;;;;;22.20;84.27;96892.51;577872;245;66442;-70
2022/06/24 01:52:14;;;;;;;;;;;;;;;22.20;84.29;96892.51;577859;245;62929;-70
2022/06/24 01:54:42;;;;;;;;;;;;;;;22.20;84.28;96899.75;577877;245;66808;-70
2022/06/24 01:57:09;;;;;;;;;;;;;;;22.20;84.29;96905.09;577867;245;66743;-70
2022/06/24 01:59:37;;;;;;;;;;;;;;;22.21;84.27;96904.83;577880;245;62913;-70
2022/06/24 02:02:05;;;;;;;;;;;;;;;22.20;84.26;96905.89;577859;245;68889;-70
2022/06/24 02:04:32;;;;;;;;;;;;;;;22.20;84.25;96897.86;577870;245;68684;-71
2022/06/24 02:07:00;;;;;;;;;;;;;;;22.20;84.27;96891.72;577911;245;65080;-71
2022/06/24 02:09:27;;;;;;;;;;;;;;;22.19;84.26;96890.92;577867;245;68712;-71
2022/06/24 02:14:40;;;;;;;;;;;;;;;22.19;84.25;96882.89;577875;245;63749;-73
2022/06/24 02:17:08;;;;;;;;;;;;;;;22.19;84.23;96880.22;577849;245;68767;-73
2022/06/24 02:19:35;;;;;;;;;;;;;;;22.19;84.26;96880.22;577897;245;68351;-73
2022/06/24 02:22:02;;;;;;;;;;;;;;;22.17;84.28;96871.63;577889;245;64902;-73
2022/06/24 02:24:30;;;;;;;;;;;;;;;22.19;84.28;96868.72;577870;245;68686;-73
2022/06/24 02:26:57;;;;;;;;;;;;;;;22.18;84.31;96867.92;577854;245;69150;-73
2022/06/24 02:29:25;;;;;;;;;;;;;;;22.18;84.35;96867.92;577856;245;64995;-73
2022/06/24 02:31:52;;;;;;;;;;;;;;;22.17;84.34;96863.60;577878;245;68725;-72
2022/06/24 02:34:20;;;;;;;;;;;;;;;22.17;84.35;96855.57;577874;245;68552;-73
2022/06/24 02:36:47;;;;;;;;;;;;;;;22.17;84.36;96856.36;577873;245;65279;-73
2022/06/24 02:39:15;;;;;;;;;;;;;;;22.18;84.35;96846.52;577845;245;69619;-73
2022/06/24 02:41:42;;;;;;;;;;;;;;;22.18;84.30;96854.55;577864;245;68530;-73
2022/06/24 02:44:10;;;;;;;;;;;;;;;22.17;84.33;96850.22;577883;245;64877;-73
2022/06/24 02:46:37;;;;;;;;;;;;;;;22.17;84.34;96856.36;577920;245;68386;-73
2022/06/24 02:49:05;;;;;;;;;;;;;;;22.17;84.34;96861.72;577826;245;68556;-73
2022/06/24 02:51:32;;;;;;;;;;;;;;;22.16;84.39;96854.78;577844;245;62724;-73
2022/06/24 02:54:00;;;;;;;;;;;;;;;22.17;84.37;96866.28;577835;245;67847;-69
2022/06/24 02:56:27;;;;;;;;;;;;;;;22.16;84.36;96868.16;577859;245;68350;-69
2022/06/24 02:58:55;;;;;;;;;;;;;;;22.17;84.32;96866.28;577919;245;64863;-69
2022/06/24 03:01:22;;;;;;;;;;;;;;;22.16;84.33;96870.84;577849;245;68722;-69
2022/06/24 03:03:50;;;;;;;;;;;;;;;22.17;84.31;96871.63;577866;245;68574;-69
2022/06/24 03:06:17;;;;;;;;;;;;;;;22.15;84.31;96866.58;577880;245;65182;-69
2022/06/24 03:08:45;;;;;;;;;;;;;;;22.16;84.35;96875.40;577876;245;68657;-69
2022/06/24 03:11:13;;;;;;;;;;;;;;;22.16;84.32;96881.55;577902;245;66520;-69
2022/06/24 03:13:41;;;;;;;;;;;;;;;22.16;84.34;96875.40;577903;245;64985;-69
2022/06/24 03:16:08;;;;;;;;;;;;;;;22.16;84.31;96875.40;577809;245;68736;-69
2022/06/24 03:18:36;;;;;;;;;;;;;;;22.16;84.30;96870.05;577826;245;68567;-73
2022/06/24 03:21:06;;;;;;;;;;;;;;;22.14;84.34;96862.28;577874;245;65132;-73
2022/06/24 03:23:32;;;;;;;;;;;;;;;22.14;84.35;96867.64;577840;242;66552;-73
2022/06/24 03:26:02;;;;;;;;;;;;;;;22.14;84.35;96869.52;577905;245;68567;-72
2022/06/24 03:28:29;;;;;;;;;;;;;;;22.14;84.33;96862.28;577844;245;64909;-72
2022/06/24 03:30:57;;;;;;;;;;;;;;;22.15;84.31;96860.40;577857;245;68676;-73
2022/06/24 03:33:24;;;;;;;;;;;;;;;22.14;84.34;96856.94;577871;245;68381;-73
2022/06/24 03:35:52;;;;;;;;;;;;;;;22.14;84.34;96858.81;577874;245;64957;-73
2022/06/24 03:38:19;;;;;;;;;;;;;;;22.14;84.36;96864.96;577888;245;68697;-72
2022/06/24 03:40:47;;;;;;;;;;;;;;;22.15;84.33;96868.43;577838;245;68836;-73
2022/06/24 03:43:14;;;;;;;;;;;;;;;22.15;84.37;96868.43;577832;245;64880;-73
2022/06/24 03:45:42;;;;;;;;;;;;;;;22.14;84.42;96859.61;577859;245;68644;-72
2022/06/24 03:48:09;;;;;;;;;;;;;;;22.14;84.39;96864.96;577858;245;68589;-73
2022/06/24 03:50:37;;;;;;;;;;;;;;;22.14;84.44;96866.84;577893;245;64921;-73
2022/06/24 03:53:04;;;;;;;;;;;;;;;22.14;84.47;96867.64;577826;244;68721;-72
2022/06/24 03:55:32;;;;;;;;;;;;;;;22.14;84.43;96877.55;577818;245;68629;-73
2022/06/24 03:58:00;;;;;;;;;;;;;;;22.14;84.42;96877.55;577888;245;65002;-72
2022/06/24 04:00:27;;;;;;;;;;;;;;;22.13;84.42;96876.76;577847;245;68273;-69
2022/06/24 04:02:55;;;;;;;;;;;;;;;22.13;84.37;96875.97;577908;245;68600;-69
2022/06/24 04:05:22;;;;;;;;;;;;;;;22.13;84.34;96866.05;577857;245;65443;-69
2022/06/24 04:07:50;;;;;;;;;;;;;;;22.14;84.29;96872.99;577852;245;66723;-69
2022/06/24 04:10:17;;;;;;;;;;;;;;;22.13;84.26;96874.08;577855;245;68593;-69
2022/06/24 04:12:45;;;;;;;;;;;;;;;22.14;84.27;96877.55;577855;245;64887;-69
2022/06/24 04:15:17;;;;;;;;;;;;;;;22.13;84.25;96881.31;577894;245;66504;-69
2022/06/24 04:17:46;;;;;;;;;;;;;;;22.13;84.28;96884.79;577895;245;66489;-69
2022/06/24 04:20:17;;;;;;;;;;;;;;;22.13;84.26;96881.31;577845;245;65250;-69
2022/06/24 04:22:44;;;;;;;;;;;;;;;22.12;84.30;96885.84;577847;245;66452;-68
2022/06/24 04:25:12;;;;;;;;;;;;;;;22.12;84.35;96885.84;577846;245;66659;-68
2022/06/24 04:27:40;;;;;;;;;;;;;;;22.12;84.40;96890.41;577839;245;64946;-68
2022/06/24 04:30:11;;;;;;;;;;;;;;;22.12;84.45;96887.73;577889;245;68747;-68
2022/06/24 04:32:39;;;;;;;;;;;;;;;22.12;84.43;96887.73;577844;245;68724;-68
2022/06/24 04:35:08;;;;;;;;;;;;;;;22.11;84.41;96886.14;577825;245;64946;-68
2022/06/24 04:37:37;;;;;;;;;;;;;;;22.11;84.38;96886.14;577776;245;68751;-68
2022/06/24 04:40:09;;;;;;;;;;;;;;;22.12;84.39;96882.38;582345;241;68862;-68
2022/06/24 04:42:37;;;;;;;;;;;;;;;22.11;84.40;96891.50;587102;241;65180;-68
2022/06/24 04:45:06;;;;;;;;;;;;;;;22.10;84.43;96888.03;586977;241;66607;-68
2022/06/24 04:47:33;;;;;;;;;;;;;;;22.11;84.43;96883.47;586725;241;68495;-68
2022/06/24 04:50:01;;;;;;;;;;;;;;;22.10;84.43;96888.03;586300;241;64947;-68
2022/06/24 04:52:28;;;;;;;;;;;;;;;22.11;84.45;96888.83;586790;241;68675;-68
2022/06/24 04:54:56;;;;;;;;;;;;;;;22.10;84.44;96890.70;586863;241;68886;-68
2022/06/24 04:57:23;;;;;;;;;;;;;;;22.11;84.47;96889.61;587179;241;65140;-68
2022/06/24 04:59:51;;;;;;;;;;;;;;;22.10;84.44;96889.91;587133;241;68697;-68
2022/06/24 05:02:19;;;;;;;;;;;;;;;22.10;84.41;96895.27;587119;241;68492;-68
2022/06/24 05:04:46;;;;;;;;;;;;;;;22.11;84.43;96896.85;587151;241;64911;-68
2022/06/24 05:07:14;;;;;;;;;;;;;;;22.10;84.42;96890.70;587119;241;68693;-68
2022/06/24 05:09:42;;;;;;;;;;;;;;;22.09;84.42;96891.77;587197;241;68305;-68
2022/06/24 05:12:10;;;;;;;;;;;;;;;22.09;84.44;96897.12;587171;241;62791;-68
2022/06/24 05:14:37;;;;;;;;;;;;;;;22.10;84.46;96904.09;587145;241;65993;-68
2022/06/24 05:17:06;;;;;;;;;;;;;;;22.09;84.49;96910.50;587154;241;68334;-68
2022/06/24 05:19:34;;;;;;;;;;;;;;;22.10;84.42;96919.35;586995;241;64995;-68
2022/06/24 05:22:01;;;;;;;;;;;;;;;22.09;84.44;96921.20;587202;241;68726;-69
2022/06/24 05:24:29;;;;;;;;;;;;;;;22.09;84.43;96921.20;587073;241;66306;-68
2022/06/24 05:26:56;;;;;;;;;;;;;;;22.09;84.44;96923.88;587075;241;64920;-69
2022/06/24 05:29:24;;;;;;;;;;;;;;;22.09;84.37;96917.73;587123;241;68395;-69
2022/06/24 05:31:51;;;;;;;;;;;;;;;22.09;84.33;96926.55;587194;241;68306;-69
2022/06/24 05:34:18;;;;;;;;;;;;;;;22.09;84.36;96923.88;587105;241;62736;-69
2022/06/24 05:36:46;;;;;;;;;;;;;;;22.08;84.34;96927.65;587206;241;68779;-69
2022/06/24 05:39:14;;;;;;;;;;;;;;;22.09;84.37;96929.23;587037;241;68600;-68
2022/06/24 05:41:42;;;;;;;;;;;;;;;22.08;84.31;96922.30;587154;241;62776;-68
2022/06/24 05:44:10;;;;;;;;;;;;;;;22.08;84.26;96922.30;587064;241;68695;-68
2022/06/24 05:46:41;;;;;;;;;;;;;;;22.09;84.23;96928.44;587157;241;66451;-68
2022/06/24 05:49:09;;;;;;;;;;;;;;;22.09;84.17;96933.80;586972;241;65121;-68
2022/06/24 05:51:36;;;;;;;;;;;;;;;22.09;84.11;96933.80;586900;241;68706;-70
2022/06/24 05:56:49;;;;;;;;;;;;;;;22.08;83.81;96926.86;585760;242;64900;-78
2022/06/24 05:59:17;;;;;;;;;;;;;;;22.06;83.37;96929.00;585873;242;66463;-74
2022/06/24 06:01:44;;;;;;;;;;;;;;;22.06;83.11;96924.44;586439;241;66196;-75
2022/06/24 06:04:12;;;;;;;;;;;;;;;22.06;83.10;96945.06;586860;241;62813;-75
2022/06/24 06:06:40;;;;;;;;;;;;;;;22.06;83.02;96926.33;586856;241;66443;-71
2022/06/24 06:09:07;;;;;;;;;;;;;;;22.06;82.93;96920.98;586827;241;69032;-71
2022/06/24 06:11:35;;;;;;;;;;;;;;;22.06;82.83;96926.33;586881;241;64895;-71
2022/06/24 06:14:02;;;;;;;;;;;;;;;22.04;82.17;96926.59;586765;241;68671;-73
2022/06/24 06:16:30;;;;;;;;;;;;;;;22.04;82.27;96917.77;586860;241;68624;-73
2022/06/24 06:18:57;;;;;;;;;;;;;;;22.04;82.50;96915.89;586837;241;64931;-72
2022/06/24 06:21:25;;;;;;;;;;;;;;;22.04;82.44;96913.21;586852;241;68679;-71
2022/06/24 06:23:52;;;;;;;;;;;;;;;22.05;82.27;96914.04;586882;241;68494;-73
2022/06/24 06:26:20;;;;;;;;;;;;;;;22.05;82.10;96906.01;586937;241;64947;-69
2022/06/24 06:28:47;;;;;;;;;;;;;;;22.06;82.12;96908.39;586855;241;68360;-70
2022/06/24 06:31:15;;;;;;;;;;;;;;;22.06;82.13;96908.39;586840;241;68601;-73
2022/06/24 06:33:44;;;;;;;;;;;;;;;22.07;82.20;96901.98;586196;241;62744;-74
2022/06/24 06:36:15;;;;;;;;;;;;;;;22.08;82.18;96897.41;585888;241;69105;-74
2022/06/24 06:38:42;;;;;;;;;;;;;;;22.08;82.21;96900.89;588286;241;66479;-74
2022/06/24 06:41:10;;;;;;;;;;;;;;;22.09;82.30;96896.33;588350;241;64027;-72
2022/06/24 06:43:39;;;;;;;;;;;;;;;22.09;82.14;96902.47;588261;241;68542;-70
2022/06/24 06:46:08;;;;;;;;;;;;;;;22.09;82.23;96889.09;588355;241;68598;-70
2022/06/24 06:48:36;;;;;;;;;;;;;;;22.10;82.57;96892.59;588006;241;61701;-72
2022/06/24 06:51:03;;;;;;;;;;;;;;;22.11;82.84;96884.27;587711;241;66462;-72
2022/06/24 06:53:31;;;;;;;;;;;;;;;22.11;82.95;96888.83;587339;241;66488;-72
2022/06/24 06:55:58;;;;;;;;;;;;;;;22.11;83.00;96884.27;585987;242;62747;-71
2022/06/24 06:58:26;;;;;;;;;;;;;;;22.12;83.07;96879.70;585856;242;66466;-71
2022/06/24 07:00:53;;;;;;;;;;;;;;;22.12;82.87;96882.38;585818;242;68640;-71
2022/06/24 07:03:21;;;;;;;;;;;;;;;22.11;83.05;96881.59;585979;242;64938;-72
2022/06/24 07:05:48;;;;;;;;;;;;;;;22.11;83.05;96886.94;585951;242;68732;-71
2022/06/24 07:08:16;;;;;;;;;;;;;;;22.11;82.99;96884.27;586000;242;68532;-71
2022/06/24 07:10:44;;;;;;;;;;;;;;;22.13;83.02;96878.64;585912;242;63672;-71
2022/06/24 07:13:12;;;;;;;;;;;;;;;22.13;82.97;96883.99;585462;241;67086;-71
2022/06/24 07:15:39;;;;;;;;;;;;;;;22.12;83.00;96882.38;582795;242;68597;-71
2022/06/24 07:18:07;;;;;;;;;;;;;;;22.11;82.96;96881.59;582379;243;65000;-71
2022/06/24 07:20:35;;;;;;;;;;;;;;;22.13;82.91;96886.67;582383;243;66619;-71
2022/06/24 07:23:02;;;;;;;;;;;;;;;22.12;82.90;96869.00;582378;243;66869;-71
2022/06/24 07:25:32;;;;;;;;;;;;;;;22.14;82.92;96874.88;582409;243;46313;-71
2022/06/24 07:28:00;;;;;;;;;;;;;;;22.13;82.92;96870.61;582368;243;68778;-71
2022/06/24 07:30:27;;;;;;;;;;;;;;;22.14;82.91;96877.55;582342;243;68649;-71
2022/06/24 07:32:55;;;;;;;;;;;;;;;22.14;82.87;96882.91;582359;243;64879;-71
2022/06/24 07:35:23;;;;;;;;;;;;;;;22.14;82.87;96882.91;582405;243;66478;-71
2022/06/24 07:37:51;;;;;;;;;;;;;;;22.15;82.84;96884.48;582320;243;68808;-71
2022/06/24 07:40:18;;;;;;;;;;;;;;;22.14;82.88;96886.38;582229;243;65138;-72
2022/06/24 07:42:46;;;;;;;;;;;;;;;22.14;82.86;96891.73;582406;243;68401;-72
2022/06/24 07:45:13;;;;;;;;;;;;;;;22.14;82.80;96899.75;582408;243;68573;-71
2022/06/24 07:47:41;;;;;;;;;;;;;;;22.15;82.80;96887.17;582326;243;63953;-71
2022/06/24 07:50:09;;;;;;;;;;;;;;;22.15;82.80;96897.88;582152;243;69739;-71
2022/06/24 07:52:36;;;;;;;;;;;;;;;22.14;82.76;96890.94;582364;242;68575;-71
2022/06/24 07:57:49;;;;;;;;;;;;;;;22.08;82.65;96871.45;585877;242;68901;-64
2022/06/24 08:00:17;;;;;;;;;;;;;;;22.20;78.41;96883.69;585795;242;66732;-70
2022/06/24 08:02:44;;;;;;;;;;;;;;;22.19;79.78;96880.22;585775;242;65211;-66
2022/06/24 08:05:12;;;;;;;;;;;;;;;22.19;80.38;96884.78;585844;242;68721;-72
2022/06/24 08:07:39;;;;;;;;;;;;;;;22.17;81.39;96871.63;585769;242;68601;-71
2022/06/24 08:10:07;;;;;;;;;;;;;;;22.17;81.95;96868.95;585860;242;62732;-70
2022/06/24 08:12:35;;;;;;;;;;;;;;;22.15;82.19;96865.75;585812;242;66101;-64
2022/06/24 08:15:02;;;;;;;;;;;;;;;22.15;82.22;96873.78;585792;242;66635;-71
2022/06/24 08:17:29;;;;;;;;;;;;;;;22.15;82.31;96874.61;585817;242;62614;-71
2022/06/24 08:19:57;;;;;;;;;;;;;;;22.15;82.44;96873.78;585807;242;67536;-71
2022/06/24 08:22:24;;;;;;;;;;;;;;;22.14;82.33;96880.23;585744;242;68545;-71
2022/06/24 08:24:52;;;;;;;;;;;;;;;22.14;82.37;96878.34;585778;242;62752;-71
2022/06/24 08:27:20;;;;;;;;;;;;;;;22.14;82.38;96881.02;585834;242;69024;-72
2022/06/24 08:29:47;;;;;;;;;;;;;;;22.14;82.31;96872.20;585790;242;68413;-72
2022/06/24 08:32:15;;;;;;;;;;;;;;;22.14;82.30;96872.99;585830;242;62614;-72
2022/06/24 08:34:42;;;;;;;;;;;;;;;22.15;82.23;96876.45;585841;242;68658;-72
2022/06/24 08:37:09;;;;;;;;;;;;;;;22.15;82.23;96873.78;585707;242;69668;-72
2022/06/24 08:39:37;;;;;;;;;;;;;;;22.15;82.17;96879.14;585835;242;64924;-72
2022/06/24 08:42:05;;;;;;;;;;;;;;;22.14;82.14;96872.99;585777;242;68654;-74
2022/06/24 08:44:33;;;;;;;;;;;;;;;22.15;82.12;96873.78;585723;242;68870;-72
2022/06/24 08:47:00;;;;;;;;;;;;;;;22.14;82.09;96881.02;585708;242;65256;-70
2022/06/24 08:49:28;;;;;;;;;;;;;;;22.15;82.08;96879.95;585313;242;68697;-69
2022/06/24 08:51:57;;;;;;;;;;;;;;;22.15;82.11;96876.45;585650;242;69354;-69
2022/06/24 08:54:25;;;;;;;;;;;;;;;22.14;82.08;96867.64;585734;239;65023;-69
2022/06/24 08:56:53;;;;;;;;;;;;;;;22.15;82.06;96863.90;585740;239;68377;-70
2022/06/24 08:59:20;;;;;;;;;;;;;;;22.15;82.04;96863.08;585746;242;68556;-70
2022/06/24 09:01:48;;;;;;;;;;;;;;;22.15;82.04;96858.55;585788;242;64898;-70
2022/06/24 09:04:15;;;;;;;;;;;;;;;22.15;82.06;96863.90;585832;242;68900;-71
2022/06/24 09:06:43;;;;;;;;;;;;;;;22.15;81.99;96855.05;585787;242;68538;-71
2022/06/24 09:09:12;;;;;;;;;;;;;;;22.15;81.99;96858.55;585850;242;63000;-70
2022/06/24 09:11:42;;;;;;;;;;;;;;;22.15;82.13;96858.55;585840;242;68689;-69
2022/06/24 09:14:10;;;;;;;;;;;;;;;22.15;82.19;96863.90;585773;242;68621;-69
2022/06/24 09:16:38;;;;;;;;;;;;;;;22.16;82.29;96864.70;585792;242;64892;-70
2022/06/24 09:19:06;;;;;;;;;;;;;;;22.16;82.39;96865.48;585809;242;66309;-69
2022/06/24 09:21:41;;;;;;;;;;;;;;;22.16;82.26;96870.05;585753;242;68377;-70
2022/06/24 09:24:10;;;;;;;;;;;;;;;22.17;82.27;96871.63;585828;242;62809;-69
2022/06/24 09:26:40;;;;;;;;;;;;;;;22.17;82.35;96858.25;585801;242;68668;-69
2022/06/24 09:29:09;;;;;;;;;;;;;;;22.17;81.66;96858.25;585819;239;68345;-70
2022/06/24 09:31:38;;;;;;;;;;;;;;;22.18;82.54;96857.22;585830;239;64922;-70
2022/06/24 09:34:08;;;;;;;;;;;;;;;22.18;82.74;96857.22;585745;242;68521;-70
2022/06/24 09:36:37;;;;;;;;;;;;;;;22.18;82.80;96859.89;585729;242;68473;-70
2022/06/24 09:39:07;;;;;;;;;;;;;;;22.17;82.87;96853.69;585866;242;64896;-70
2022/06/24 09:41:45;;;;;;;;;;;;;;;22.18;82.88;96857.22;585757;242;68422;-70
2022/06/24 09:44:13;;;;;;;;;;;;;;;22.17;82.92;96853.69;585862;242;67167;-71
2022/06/24 09:46:40;;;;;;;;;;;;;;;22.17;82.94;96860.92;585833;242;62823;-71
2022/06/24 09:49:15;;;;;;;;;;;;;;;22.17;82.90;96855.57;585791;242;68694;-71
2022/06/24 09:51:47;;;;;;;;;;;;;;;22.17;82.90;96856.36;585703;242;66924;-69
2022/06/24 09:54:17;;;;;;;;;;;;;;;22.17;82.87;96853.69;578341;238;65108;-69
2022/06/24 09:56:46;;;;;;;;;;;;;;;22.18;82.88;96854.55;577099;246;66591;-70
2022/06/24 10:02:00;;;;;;;;;;;;;;;22.17;82.81;96855.57;576949;246;65010;-70
2022/06/24 10:04:28;;;;;;;;;;;;;;;22.17;82.85;96856.36;577076;246;68743;-71
2022/06/24 10:06:56;;;;;;;;;;;;;;;22.17;82.87;96858.25;577055;246;68770;-70
2022/06/24 10:09:25;;;;;;;;;;;;;;;22.18;82.84;96867.92;576965;246;64930;-70
2022/06/24 10:11:56;;;;;;;;;;;;;;;22.17;82.84;96864.39;576684;246;67106;-70
2022/06/24 10:14:25;;;;;;;;;;;;;;;22.18;82.82;96857.22;576617;246;66471;-71
2022/06/24 10:16:55;;;;;;;;;;;;;;;22.18;82.92;96862.57;577126;242;46216;-71
2022/06/24 10:19:24;;;;;;;;;;;;;;;22.18;82.93;96862.57;577046;246;69819;-71
2022/06/24 10:21:54;;;;;;;;;;;;;;;22.18;82.93;96859.89;577041;246;68582;-71
2022/06/24 10:24:21;;;;;;;;;;;;;;;22.18;83.04;96857.22;577047;246;62815;-70
2022/06/24 10:26:51;;;;;;;;;;;;;;;22.20;80.52;96860.39;577071;246;68690;-70
2022/06/24 10:29:23;;;;;;;;;;;;;;;22.19;81.85;96858.80;577035;246;68615;-71
2022/06/24 10:31:53;;;;;;;;;;;;;;;22.18;82.42;96865.25;577017;243;62839;-69
2022/06/24 10:34:22;;;;;;;;;;;;;;;22.17;82.36;96859.05;577124;246;69102;-68
2022/06/24 10:36:51;;;;;;;;;;;;;;;22.17;82.24;96860.92;577133;246;68536;-72
2022/06/24 10:39:20;;;;;;;;;;;;;;;22.17;82.12;96866.28;576978;246;65185;-70
2022/06/24 10:41:48;;;;;;;;;;;;;;;22.16;81.95;96867.38;577057;246;68835;-71
2022/06/24 10:44:22;;;;;;;;;;;;;;;22.16;82.09;96867.38;577065;246;68538;-69
2022/06/24 10:47:07;;;;;;;;;;;;;;;22.16;82.09;96873.52;577087;246;62918;-73
2022/06/24 10:49:54;;;;;;;;;;;;;;;22.18;82.09;96873.28;577050;246;68737;-70
2022/06/24 10:52:33;;;;;;;;;;;;;;;22.17;82.10;96876.98;576989;243;68437;-72
2022/06/24 10:55:29;;;;;;;;;;;;;;;22.16;82.07;96876.19;577021;246;65094;-70
2022/06/24 10:57:59;;;;;;;;;;;;;;;22.17;82.00;96871.63;577091;246;68960;-71
2022/06/24 11:00:28;;;;;;;;;;;;;;;22.16;81.99;96864.70;576959;246;68502;-69
2022/06/24 11:03:07;;;;;;;;;;;;;;;22.15;81.97;96866.58;576920;246;63708;-70
2022/06/24 11:05:36;;;;;;;;;;;;;;;22.16;81.95;96873.52;577038;246;66483;-70
2022/06/24 11:08:05;;;;;;;;;;;;;;;22.16;82.02;96865.48;576607;246;68851;-70
2022/06/24 11:10:33;;;;;;;;;;;;;;;22.17;81.98;96876.98;577086;243;65082;-72
2022/06/24 11:13:01;;;;;;;;;;;;;;;22.16;81.93;96870.84;576964;246;68751;-74
2022/06/24 11:15:42;;;;;;;;;;;;;;;22.16;81.79;96870.05;577063;246;68577;-72
2022/06/24 11:18:15;;;;;;;;;;;;;;;22.17;82.01;96872.42;576941;246;64898;-71
2022/06/24 11:20:44;;;;;;;;;;;;;;;22.16;82.02;96862.81;576900;246;69673;-71
2022/06/24 11:23:13;;;;;;;;;;;;;;;22.17;82.14;96867.07;576950;243;66532;-71
2022/06/24 11:25:41;;;;;;;;;;;;;;;22.17;82.11;96863.60;577067;246;65260;-71
2022/06/24 11:28:19;;;;;;;;;;;;;;;22.18;82.08;96867.92;577000;246;68551;-71
2022/06/24 11:30:47;;;;;;;;;;;;;;;22.17;82.09;96866.28;576976;246;68604;-70
2022/06/24 11:33:15;;;;;;;;;;;;;;;22.17;82.18;96868.95;577009;246;65587;-70
2022/06/24 11:35:42;;;;;;;;;;;;;;;22.17;82.11;96860.92;576991;246;68727;-70
2022/06/24 11:38:10;;;;;;;;;;;;;;;22.17;82.09;96861.72;577046;246;68556;-70
2022/06/24 11:40:39;;;;;;;;;;;;;;;22.16;82.04;96862.81;577162;246;65206;-70
2022/06/24 11:43:11;;;;;;;;;;;;;;;22.19;81.91;96868.72;588628;239;68713;-70
2022/06/24 11:45:39;;;;;;;;;;;;;;;22.17;81.92;96871.63;588583;239;66475;-70
2022/06/24 11:48:10;;;;;;;;;;;;;;;22.18;81.88;96867.92;589338;239;66131;-71
2022/06/24 11:50:39;;;;;;;;;;;;;;;22.19;81.91;96880.22;586950;241;66701;-71
2022/06/24 11:53:08;;;;;;;;;;;;;;;22.18;81.97;96862.57;587050;241;67450;-71
2022/06/24 11:55:37;;;;;;;;;;;;;;;22.17;82.03;96867.07;586903;241;64955;-76
2022/06/24 11:58:11;;;;;;;;;;;;;;;22.18;81.94;96865.25;586870;241;66492;-71
2022/06/24 12:00:39;;;;;;;;;;;;;;;22.19;82.02;96852.66;587091;241;68642;-71
2022/06/24 12:03:09;;;;;;;;;;;;;;;22.19;82.06;96858.01;586977;241;66028;-70
2022/06/24 12:05:41;;;;;;;;;;;;;;;22.19;81.97;96852.66;586922;241;68694;-70
2022/06/24 12:08:09;;;;;;;;;;;;;;;22.19;82.11;96858.80;587134;241;66451;-68
2022/06/24 12:10:36;;;;;;;;;;;;;;;22.19;82.18;96864.16;587007;241;63035;-69
2022/06/24 12:13:07;;;;;;;;;;;;;;;22.19;82.29;96858.80;587079;241;66571;-71
2022/06/24 12:15:36;;;;;;;;;;;;;;;22.19;82.34;96856.13;586931;241;66567;-71
2022/06/24 12:18:05;;;;;;;;;;;;;;;22.20;82.33;96854.24;586962;241;65091;-70
2022/06/24 12:20:32;;;;;;;;;;;;;;;22.20;82.35;96860.39;586775;241;68805;-70
2022/06/24 12:23:16;;;;;;;;;;;;;;;22.20;82.34;96859.59;586962;241;68845;-70
2022/06/24 12:25:47;;;;;;;;;;;;;;;22.20;82.36;96859.59;587048;241;46069;-68
2022/06/24 12:28:22;;;;;;;;;;;;;;;22.20;82.40;96857.71;587011;241;68961;-68
2022/06/24 12:31:00;;;;;;;;;;;;;;;22.20;82.42;96854.24;587024;241;66422;-69
2022/06/24 12:33:28;;;;;;;;;;;;;;;22.20;82.42;96852.36;586951;241;62856;-72
2022/06/24 12:36:03;;;;;;;;;;;;;;;22.20;82.47;96857.71;587055;241;66741;-70
2022/06/24 12:38:31;;;;;;;;;;;;;;;22.20;82.44;96860.39;586336;241;66500;-73
2022/06/24 12:41:12;;;;;;;;;;;;;;;22.20;82.43;96864.95;587106;241;61127;-70
2022/06/24 12:43:59;;;;;;;;;;;;;;;22.20;82.45;96860.39;586730;241;68496;-72
2022/06/24 12:46:28;;;;;;;;;;;;;;;22.20;82.42;96855.03;586591;241;68657;-71
2022/06/24 12:51:43;;;;;;;;;;;;;;;22.20;82.44;96849.68;587097;241;69021;-71
2022/06/24 12:54:11;;;;;;;;;;;;;;;22.22;82.46;96857.44;587014;240;68623;-72
2022/06/24 12:56:39;;;;;;;;;;;;;;;22.21;82.51;96856.66;587151;241;64928;-73
2022/06/24 12:59:07;;;;;;;;;;;;;;;22.21;82.42;96853.16;587124;241;68781;-72
2022/06/24 13:01:41;;;;;;;;;;;;;;;22.21;82.51;96866.53;586985;241;68582;-73
2022/06/24 13:04:09;;;;;;;;;;;;;;;22.20;82.49;96860.39;587074;241;62754;-74
2022/06/24 13:06:37;;;;;;;;;;;;;;;22.21;82.48;96856.66;587101;241;68848;-73
2022/06/24 13:09:05;;;;;;;;;;;;;;;22.21;82.51;96856.66;587025;241;66443;-71